sensor_id;sensor_type;location;lat;lon;timestamp;P1;durP1;ratioP1;P2;durP2;ratioP2
7440;SDS011;29616;51.950;8.572;2023-11-18T00:00:14;337.08;;;154.30;;
7440;SDS011;29616;51.950;8.572;2023-11-18T00:02:45;346.23;;;148.00;;
7440;SDS011;29616;51.950;8.572;2023-11-18T00:05:18;330.98;;;154.32;;
7440;SDS011;29616;51.950;8.572;2023-11-18T00:07:53;332.80;;;154.95;;
7440;SDS011;29616;51.950;8.572;2023-11-18T00:10:31;345.83;;;157.50;;
7440;SDS011;29616;51.950;8.572;2023-11-18T00:13:02;359.88;;;159.57;;
7440;SDS011;29616;51.950;8.572;2023-11-18T00:15:31;368.83;;;163.10;;
7440;SDS011;29616;51.950;8.572;2023-11-18T00:18:03;354.67;;;157.43;;
7440;SDS011;29616;51.950;8.572;2023-11-18T00:20:36;357.98;;;149.10;;
7440;SDS011;29616;51.950;8.572;2023-11-18T00:23:09;358.05;;;149.15;;
7440;SDS011;29616;51.950;8.572;2023-11-18T00:25:39;362.88;;;159.23;;
7440;SDS011;29616;51.950;8.572;2023-11-18T00:28:10;326.98;;;142.80;;
7440;SDS011;29616;51.950;8.572;2023-11-18T00:30:41;348.52;;;154.65;;
7440;SDS011;29616;51.950;8.572;2023-11-18T00:35:42;369.40;;;150.52;;
7440;SDS011;29616;51.950;8.572;2023-11-18T00:38:12;347.55;;;150.32;;
7440;SDS011;29616;51.950;8.572;2023-11-18T00:40:42;337.48;;;155.48;;
7440;SDS011;29616;51.950;8.572;2023-11-18T00:43:13;365.48;;;158.27;;
7440;SDS011;29616;51.950;8.572;2023-11-18T00:45:48;339.92;;;155.13;;
7440;SDS011;29616;51.950;8.572;2023-11-18T00:48:19;365.13;;;157.15;;
7440;SDS011;29616;51.950;8.572;2023-11-18T00:50:53;359.88;;;160.23;;
7440;SDS011;29616;51.950;8.572;2023-11-18T00:53:24;389.60;;;154.27;;
7440;SDS011;29616;51.950;8.572;2023-11-18T00:55:55;346.42;;;156.73;;
7440;SDS011;29616;51.950;8.572;2023-11-18T00:58:25;391.15;;;154.40;;
7440;SDS011;29616;51.950;8.572;2023-11-18T01:00:57;399.85;;;159.70;;
7440;SDS011;29616;51.950;8.572;2023-11-18T01:03:27;358.85;;;156.23;;
7440;SDS011;29616;51.950;8.572;2023-11-18T01:06:00;396.15;;;153.93;;
7440;SDS011;29616;51.950;8.572;2023-11-18T01:08:35;394.58;;;164.52;;
7440;SDS011;29616;51.950;8.572;2023-11-18T01:11:07;340.15;;;154.88;;
7440;SDS011;29616;51.950;8.572;2023-11-18T01:13:38;369.60;;;154.50;;
7440;SDS011;29616;51.950;8.572;2023-11-18T01:16:08;387.38;;;157.70;;
7440;SDS011;29616;51.950;8.572;2023-11-18T01:18:42;360.70;;;148.10;;
7440;SDS011;29616;51.950;8.572;2023-11-18T01:21:17;409.08;;;156.80;;
7440;SDS011;29616;51.950;8.572;2023-11-18T01:23:48;402.55;;;155.82;;
7440;SDS011;29616;51.950;8.572;2023-11-18T01:26:20;375.25;;;162.00;;
7440;SDS011;29616;51.950;8.572;2023-11-18T01:28:52;363.35;;;151.73;;
7440;SDS011;29616;51.950;8.572;2023-11-18T01:31:26;383.90;;;162.48;;
7440;SDS011;29616;51.950;8.572;2023-11-18T01:34:14;391.80;;;156.18;;
7440;SDS011;29616;51.950;8.572;2023-11-18T01:36:47;332.65;;;153.55;;
7440;SDS011;29616;51.950;8.572;2023-11-18T01:39:21;312.02;;;145.50;;
7440;SDS011;29616;51.950;8.572;2023-11-18T01:41:53;344.08;;;149.35;;
7440;SDS011;29616;51.950;8.572;2023-11-18T01:44:29;332.42;;;147.50;;
7440;SDS011;29616;51.950;8.572;2023-11-18T01:47:02;377.88;;;158.43;;
7440;SDS011;29616;51.950;8.572;2023-11-18T01:49:35;389.20;;;157.73;;
7440;SDS011;29616;51.950;8.572;2023-11-18T01:52:10;370.58;;;157.18;;
7440;SDS011;29616;51.950;8.572;2023-11-18T01:54:43;358.38;;;161.65;;
7440;SDS011;29616;51.950;8.572;2023-11-18T01:57:15;402.55;;;153.43;;
7440;SDS011;29616;51.950;8.572;2023-11-18T01:59:45;358.27;;;143.82;;
7440;SDS011;29616;51.950;8.572;2023-11-18T02:02:16;381.80;;;149.90;;
7440;SDS011;29616;51.950;8.572;2023-11-18T02:04:49;342.58;;;158.40;;
7440;SDS011;29616;51.950;8.572;2023-11-18T02:07:22;383.98;;;157.82;;
7440;SDS011;29616;51.950;8.572;2023-11-18T02:09:54;378.98;;;163.05;;
7440;SDS011;29616;51.950;8.572;2023-11-18T02:12:27;370.67;;;160.57;;
7440;SDS011;29616;51.950;8.572;2023-11-18T02:15:08;367.92;;;158.38;;
7440;SDS011;29616;51.950;8.572;2023-11-18T02:17:40;369.35;;;160.30;;
7440;SDS011;29616;51.950;8.572;2023-11-18T02:20:19;361.52;;;149.35;;
7440;SDS011;29616;51.950;8.572;2023-11-18T02:22:51;347.67;;;150.18;;
7440;SDS011;29616;51.950;8.572;2023-11-18T02:25:22;438.15;;;152.27;;
7440;SDS011;29616;51.950;8.572;2023-11-18T02:27:58;372.15;;;144.50;;
7440;SDS011;29616;51.950;8.572;2023-11-18T02:30:30;424.83;;;152.20;;
7440;SDS011;29616;51.950;8.572;2023-11-18T02:33:04;361.65;;;150.80;;
7440;SDS011;29616;51.950;8.572;2023-11-18T02:35:46;388.42;;;152.73;;
7440;SDS011;29616;51.950;8.572;2023-11-18T02:38:22;421.63;;;149.25;;
7440;SDS011;29616;51.950;8.572;2023-11-18T02:41:06;432.00;;;152.63;;
7440;SDS011;29616;51.950;8.572;2023-11-18T02:43:45;366.90;;;144.27;;
7440;SDS011;29616;51.950;8.572;2023-11-18T02:46:15;349.05;;;147.77;;
7440;SDS011;29616;51.950;8.572;2023-11-18T02:48:46;368.33;;;147.45;;
7440;SDS011;29616;51.950;8.572;2023-11-18T02:51:17;366.08;;;149.48;;
7440;SDS011;29616;51.950;8.572;2023-11-18T02:53:46;347.65;;;149.15;;
7440;SDS011;29616;51.950;8.572;2023-11-18T02:56:17;338.50;;;147.30;;
7440;SDS011;29616;51.950;8.572;2023-11-18T02:58:48;377.20;;;144.88;;
7440;SDS011;29616;51.950;8.572;2023-11-18T03:01:17;351.98;;;144.77;;
7440;SDS011;29616;51.950;8.572;2023-11-18T03:04:05;399.10;;;153.82;;
7440;SDS011;29616;51.950;8.572;2023-11-18T03:06:53;370.50;;;152.00;;
7440;SDS011;29616;51.950;8.572;2023-11-18T03:09:22;342.67;;;142.40;;
7440;SDS011;29616;51.950;8.572;2023-11-18T03:12:05;379.60;;;151.27;;
7440;SDS011;29616;51.950;8.572;2023-11-18T03:14:40;372.33;;;153.07;;
7440;SDS011;29616;51.950;8.572;2023-11-18T03:17:11;340.58;;;151.07;;
7440;SDS011;29616;51.950;8.572;2023-11-18T03:19:42;343.55;;;145.60;;
7440;SDS011;29616;51.950;8.572;2023-11-18T03:22:14;363.17;;;155.02;;
7440;SDS011;29616;51.950;8.572;2023-11-18T03:24:43;415.45;;;156.82;;
7440;SDS011;29616;51.950;8.572;2023-11-18T03:27:16;328.98;;;143.68;;
7440;SDS011;29616;51.950;8.572;2023-11-18T03:29:49;355.58;;;143.35;;
7440;SDS011;29616;51.950;8.572;2023-11-18T03:32:22;345.17;;;151.55;;
7440;SDS011;29616;51.950;8.572;2023-11-18T03:34:52;324.15;;;147.45;;
7440;SDS011;29616;51.950;8.572;2023-11-18T03:37:22;335.98;;;145.80;;
7440;SDS011;29616;51.950;8.572;2023-11-18T03:39:52;336.75;;;148.10;;
7440;SDS011;29616;51.950;8.572;2023-11-18T03:44:53;315.65;;;151.93;;
7440;SDS011;29616;51.950;8.572;2023-11-18T03:47:25;350.50;;;148.98;;
7440;SDS011;29616;51.950;8.572;2023-11-18T03:49:57;331.23;;;152.73;;
7440;SDS011;29616;51.950;8.572;2023-11-18T03:52:30;304.25;;;143.02;;
7440;SDS011;29616;51.950;8.572;2023-11-18T03:55:02;282.75;;;141.60;;
7440;SDS011;29616;51.950;8.572;2023-11-18T03:57:33;287.90;;;142.05;;
7440;SDS011;29616;51.950;8.572;2023-11-18T04:00:07;282.92;;;150.55;;
7440;SDS011;29616;51.950;8.572;2023-11-18T04:02:40;287.13;;;144.65;;
7440;SDS011;29616;51.950;8.572;2023-11-18T04:05:12;272.85;;;145.65;;
7440;SDS011;29616;51.950;8.572;2023-11-18T04:07:42;262.52;;;141.48;;
7440;SDS011;29616;51.950;8.572;2023-11-18T04:10:11;257.52;;;143.85;;
7440;SDS011;29616;51.950;8.572;2023-11-18T04:12:40;251.23;;;142.13;;
7440;SDS011;29616;51.950;8.572;2023-11-18T04:15:16;260.52;;;144.55;;
7440;SDS011;29616;51.950;8.572;2023-11-18T04:17:46;261.35;;;140.65;;
7440;SDS011;29616;51.950;8.572;2023-11-18T04:20:17;259.33;;;142.77;;
7440;SDS011;29616;51.950;8.572;2023-11-18T04:22:46;264.45;;;147.90;;
7440;SDS011;29616;51.950;8.572;2023-11-18T04:25:18;274.52;;;151.77;;
7440;SDS011;29616;51.950;8.572;2023-11-18T04:27:47;266.00;;;143.38;;
7440;SDS011;29616;51.950;8.572;2023-11-18T04:30:20;261.52;;;147.27;;
7440;SDS011;29616;51.950;8.572;2023-11-18T04:32:49;263.77;;;151.98;;
7440;SDS011;29616;51.950;8.572;2023-11-18T04:35:23;270.85;;;148.15;;
7440;SDS011;29616;51.950;8.572;2023-11-18T04:37:55;289.85;;;159.98;;
7440;SDS011;29616;51.950;8.572;2023-11-18T04:40:30;285.40;;;152.65;;
7440;SDS011;29616;51.950;8.572;2023-11-18T04:43:00;301.70;;;163.40;;
7440;SDS011;29616;51.950;8.572;2023-11-18T04:45:35;284.70;;;155.18;;
7440;SDS011;29616;51.950;8.572;2023-11-18T04:48:04;289.13;;;152.93;;
7440;SDS011;29616;51.950;8.572;2023-11-18T04:50:34;291.20;;;154.02;;
7440;SDS011;29616;51.950;8.572;2023-11-18T04:53:05;303.85;;;160.02;;
7440;SDS011;29616;51.950;8.572;2023-11-18T04:55:36;273.77;;;151.32;;
7440;SDS011;29616;51.950;8.572;2023-11-18T04:58:08;288.98;;;157.85;;
7440;SDS011;29616;51.950;8.572;2023-11-18T05:00:39;301.98;;;162.10;;
7440;SDS011;29616;51.950;8.572;2023-11-18T05:03:09;291.95;;;162.93;;
7440;SDS011;29616;51.950;8.572;2023-11-18T05:05:44;295.75;;;158.75;;
7440;SDS011;29616;51.950;8.572;2023-11-18T05:08:20;275.63;;;152.50;;
7440;SDS011;29616;51.950;8.572;2023-11-18T05:10:51;274.85;;;153.23;;
7440;SDS011;29616;51.950;8.572;2023-11-18T05:13:24;288.15;;;160.25;;
7440;SDS011;29616;51.950;8.572;2023-11-18T05:15:56;280.52;;;152.90;;
7440;SDS011;29616;51.950;8.572;2023-11-18T05:18:25;298.85;;;164.27;;
7440;SDS011;29616;51.950;8.572;2023-11-18T05:21:01;281.60;;;156.52;;
7440;SDS011;29616;51.950;8.572;2023-11-18T05:23:33;278.85;;;152.77;;
7440;SDS011;29616;51.950;8.572;2023-11-18T05:26:04;281.95;;;163.40;;
7440;SDS011;29616;51.950;8.572;2023-11-18T05:28:34;298.08;;;166.80;;
7440;SDS011;29616;51.950;8.572;2023-11-18T05:31:05;282.75;;;158.55;;
7440;SDS011;29616;51.950;8.572;2023-11-18T05:33:36;300.08;;;167.95;;
7440;SDS011;29616;51.950;8.572;2023-11-18T05:36:08;295.67;;;165.60;;
7440;SDS011;29616;51.950;8.572;2023-11-18T05:38:39;291.02;;;164.27;;
7440;SDS011;29616;51.950;8.572;2023-11-18T05:41:10;276.60;;;159.93;;
7440;SDS011;29616;51.950;8.572;2023-11-18T05:43:43;268.05;;;156.68;;
7440;SDS011;29616;51.950;8.572;2023-11-18T05:46:20;283.52;;;155.75;;
7440;SDS011;29616;51.950;8.572;2023-11-18T05:48:52;291.95;;;163.15;;
7440;SDS011;29616;51.950;8.572;2023-11-18T05:51:23;280.90;;;165.32;;
7440;SDS011;29616;51.950;8.572;2023-11-18T05:53:56;272.25;;;152.68;;
7440;SDS011;29616;51.950;8.572;2023-11-18T05:56:28;284.40;;;158.00;;
7440;SDS011;29616;51.950;8.572;2023-11-18T05:58:59;287.13;;;160.98;;
7440;SDS011;29616;51.950;8.572;2023-11-18T06:01:32;302.77;;;176.32;;
7440;SDS011;29616;51.950;8.572;2023-11-18T06:04:04;300.75;;;175.75;;
7440;SDS011;29616;51.950;8.572;2023-11-18T06:06:36;283.63;;;162.93;;
7440;SDS011;29616;51.950;8.572;2023-11-18T06:09:07;288.08;;;160.25;;
7440;SDS011;29616;51.950;8.572;2023-11-18T06:11:45;288.05;;;162.05;;
7440;SDS011;29616;51.950;8.572;2023-11-18T06:14:14;301.30;;;162.23;;
7440;SDS011;29616;51.950;8.572;2023-11-18T06:16:47;296.35;;;165.80;;
7440;SDS011;29616;51.950;8.572;2023-11-18T06:19:18;318.15;;;178.55;;
7440;SDS011;29616;51.950;8.572;2023-11-18T06:21:50;308.85;;;169.70;;
7440;SDS011;29616;51.950;8.572;2023-11-18T06:24:19;275.30;;;154.60;;
7440;SDS011;29616;51.950;8.572;2023-11-18T06:26:52;277.50;;;154.20;;
7440;SDS011;29616;51.950;8.572;2023-11-18T06:29:22;291.75;;;159.75;;
7440;SDS011;29616;51.950;8.572;2023-11-18T06:31:53;275.50;;;161.75;;
7440;SDS011;29616;51.950;8.572;2023-11-18T06:34:29;310.92;;;173.27;;
7440;SDS011;29616;51.950;8.572;2023-11-18T06:36:58;303.33;;;170.32;;
7440;SDS011;29616;51.950;8.572;2023-11-18T06:39:31;307.45;;;164.52;;
7440;SDS011;29616;51.950;8.572;2023-11-18T06:42:08;282.48;;;152.18;;
7440;SDS011;29616;51.950;8.572;2023-11-18T06:44:39;313.90;;;164.68;;
7440;SDS011;29616;51.950;8.572;2023-11-18T06:47:11;306.58;;;168.32;;
7440;SDS011;29616;51.950;8.572;2023-11-18T06:49:45;323.10;;;174.25;;
7440;SDS011;29616;51.950;8.572;2023-11-18T06:52:16;302.67;;;165.82;;
7440;SDS011;29616;51.950;8.572;2023-11-18T06:54:46;296.15;;;157.23;;
7440;SDS011;29616;51.950;8.572;2023-11-18T06:57:18;283.13;;;149.07;;
7440;SDS011;29616;51.950;8.572;2023-11-18T06:59:48;278.95;;;154.35;;
7440;SDS011;29616;51.950;8.572;2023-11-18T07:02:20;298.45;;;150.23;;
7440;SDS011;29616;51.950;8.572;2023-11-18T07:04:51;312.02;;;167.07;;
7440;SDS011;29616;51.950;8.572;2023-11-18T07:07:21;293.77;;;155.07;;
7440;SDS011;29616;51.950;8.572;2023-11-18T07:09:50;305.38;;;163.65;;
7440;SDS011;29616;51.950;8.572;2023-11-18T07:12:21;295.83;;;157.50;;
7440;SDS011;29616;51.950;8.572;2023-11-18T07:14:51;289.98;;;159.07;;
7440;SDS011;29616;51.950;8.572;2023-11-18T07:17:25;290.38;;;161.25;;
7440;SDS011;29616;51.950;8.572;2023-11-18T07:19:54;295.88;;;151.73;;
7440;SDS011;29616;51.950;8.572;2023-11-18T07:22:24;302.52;;;160.82;;
7440;SDS011;29616;51.950;8.572;2023-11-18T07:24:54;312.27;;;161.07;;
7440;SDS011;29616;51.950;8.572;2023-11-18T07:27:28;307.80;;;165.85;;
7440;SDS011;29616;51.950;8.572;2023-11-18T07:30:03;290.98;;;161.13;;
7440;SDS011;29616;51.950;8.572;2023-11-18T07:32:36;328.35;;;167.80;;
7440;SDS011;29616;51.950;8.572;2023-11-18T07:35:07;297.23;;;157.07;;
7440;SDS011;29616;51.950;8.572;2023-11-18T07:37:42;294.60;;;158.80;;
7440;SDS011;29616;51.950;8.572;2023-11-18T07:40:13;315.95;;;157.90;;
7440;SDS011;29616;51.950;8.572;2023-11-18T07:42:51;294.77;;;162.20;;
7440;SDS011;29616;51.950;8.572;2023-11-18T07:45:23;306.95;;;163.48;;
7440;SDS011;29616;51.950;8.572;2023-11-18T07:47:57;293.23;;;161.52;;
7440;SDS011;29616;51.950;8.572;2023-11-18T07:50:26;297.85;;;155.13;;
7440;SDS011;29616;51.950;8.572;2023-11-18T07:52:55;291.58;;;152.95;;
7440;SDS011;29616;51.950;8.572;2023-11-18T07:55:29;290.48;;;149.35;;
7440;SDS011;29616;51.950;8.572;2023-11-18T07:58:01;292.83;;;155.80;;
7440;SDS011;29616;51.950;8.572;2023-11-18T08:00:34;295.58;;;154.27;;
7440;SDS011;29616;51.950;8.572;2023-11-18T08:03:07;302.95;;;153.50;;
7440;SDS011;29616;51.950;8.572;2023-11-18T08:05:41;300.33;;;163.13;;
7440;SDS011;29616;51.950;8.572;2023-11-18T08:08:12;301.10;;;154.60;;
7440;SDS011;29616;51.950;8.572;2023-11-18T08:10:48;305.55;;;154.43;;
7440;SDS011;29616;51.950;8.572;2023-11-18T08:13:20;310.95;;;161.02;;
7440;SDS011;29616;51.950;8.572;2023-11-18T08:15:56;315.52;;;163.30;;
7440;SDS011;29616;51.950;8.572;2023-11-18T08:18:30;320.83;;;166.05;;
7440;SDS011;29616;51.950;8.572;2023-11-18T08:20:59;319.83;;;164.23;;
7440;SDS011;29616;51.950;8.572;2023-11-18T08:23:31;322.27;;;161.18;;
7440;SDS011;29616;51.950;8.572;2023-11-18T08:26:01;322.65;;;156.50;;
7440;SDS011;29616;51.950;8.572;2023-11-18T08:28:33;312.27;;;159.57;;
7440;SDS011;29616;51.950;8.572;2023-11-18T08:31:04;307.60;;;156.25;;
7440;SDS011;29616;51.950;8.572;2023-11-18T08:33:36;327.08;;;164.88;;
7440;SDS011;29616;51.950;8.572;2023-11-18T08:36:05;303.80;;;147.43;;
7440;SDS011;29616;51.950;8.572;2023-11-18T08:38:37;325.35;;;160.40;;
7440;SDS011;29616;51.950;8.572;2023-11-18T08:41:08;324.48;;;162.18;;
7440;SDS011;29616;51.950;8.572;2023-11-18T08:43:41;331.42;;;157.20;;
7440;SDS011;29616;51.950;8.572;2023-11-18T08:46:14;346.50;;;164.68;;
7440;SDS011;29616;51.950;8.572;2023-11-18T08:48:47;358.27;;;193.57;;
7440;SDS011;29616;51.950;8.572;2023-11-18T08:51:20;287.75;;;145.50;;
7440;SDS011;29616;51.950;8.572;2023-11-18T08:53:53;306.88;;;150.20;;
7440;SDS011;29616;51.950;8.572;2023-11-18T08:56:27;314.48;;;151.63;;
7440;SDS011;29616;51.950;8.572;2023-11-18T08:59:02;307.98;;;150.02;;
7440;SDS011;29616;51.950;8.572;2023-11-18T09:01:35;289.52;;;145.18;;
7440;SDS011;29616;51.950;8.572;2023-11-18T09:04:09;303.05;;;148.43;;
7440;SDS011;29616;51.950;8.572;2023-11-18T09:06:39;301.90;;;139.15;;
7440;SDS011;29616;51.950;8.572;2023-11-18T09:09:09;301.90;;;144.15;;
7440;SDS011;29616;51.950;8.572;2023-11-18T09:11:43;313.52;;;145.90;;
7440;SDS011;29616;51.950;8.572;2023-11-18T09:14:12;308.10;;;144.60;;
7440;SDS011;29616;51.950;8.572;2023-11-18T09:16:41;295.75;;;134.88;;
7440;SDS011;29616;51.950;8.572;2023-11-18T09:19:12;290.13;;;132.23;;
7440;SDS011;29616;51.950;8.572;2023-11-18T09:21:43;287.02;;;135.70;;
7440;SDS011;29616;51.950;8.572;2023-11-18T09:24:15;311.25;;;149.80;;
7440;SDS011;29616;51.950;8.572;2023-11-18T09:26:48;283.73;;;132.57;;
7440;SDS011;29616;51.950;8.572;2023-11-18T09:29:19;273.48;;;125.45;;
7440;SDS011;29616;51.950;8.572;2023-11-18T09:31:51;280.98;;;133.27;;
7440;SDS011;29616;51.950;8.572;2023-11-18T09:34:25;279.83;;;131.35;;
7440;SDS011;29616;51.950;8.572;2023-11-18T09:37:01;267.55;;;127.63;;
7440;SDS011;29616;51.950;8.572;2023-11-18T09:39:32;265.50;;;121.30;;
7440;SDS011;29616;51.950;8.572;2023-11-18T09:42:05;263.63;;;126.70;;
7440;SDS011;29616;51.950;8.572;2023-11-18T09:44:37;266.27;;;129.95;;
7440;SDS011;29616;51.950;8.572;2023-11-18T09:47:07;253.10;;;124.15;;
7440;SDS011;29616;51.950;8.572;2023-11-18T09:49:43;252.77;;;119.32;;
7440;SDS011;29616;51.950;8.572;2023-11-18T09:52:22;253.68;;;121.47;;
7440;SDS011;29616;51.950;8.572;2023-11-18T09:54:55;258.15;;;126.20;;
7440;SDS011;29616;51.950;8.572;2023-11-18T09:57:32;260.33;;;132.23;;
7440;SDS011;29616;51.950;8.572;2023-11-18T10:00:12;242.52;;;119.50;;
7440;SDS011;29616;51.950;8.572;2023-11-18T10:03:01;239.75;;;121.03;;
7440;SDS011;29616;51.950;8.572;2023-11-18T10:05:36;243.90;;;118.68;;
7440;SDS011;29616;51.950;8.572;2023-11-18T10:08:11;245.02;;;121.68;;
7440;SDS011;29616;51.950;8.572;2023-11-18T10:10:45;239.70;;;119.82;;
7440;SDS011;29616;51.950;8.572;2023-11-18T10:13:14;239.80;;;119.82;;
7440;SDS011;29616;51.950;8.572;2023-11-18T10:15:51;233.48;;;118.05;;
7440;SDS011;29616;51.950;8.572;2023-11-18T10:18:24;242.95;;;117.75;;
7440;SDS011;29616;51.950;8.572;2023-11-18T10:21:02;246.20;;;124.57;;
7440;SDS011;29616;51.950;8.572;2023-11-18T10:23:35;244.75;;;118.07;;
7440;SDS011;29616;51.950;8.572;2023-11-18T10:26:09;240.25;;;117.18;;
7440;SDS011;29616;51.950;8.572;2023-11-18T10:28:42;233.23;;;118.15;;
7440;SDS011;29616;51.950;8.572;2023-11-18T10:31:17;238.02;;;119.35;;
7440;SDS011;29616;51.950;8.572;2023-11-18T10:33:52;239.63;;;116.32;;
7440;SDS011;29616;51.950;8.572;2023-11-18T10:40:15;237.48;;;119.95;;
7440;SDS011;29616;51.950;8.572;2023-11-18T10:43:01;239.77;;;119.22;;
7440;SDS011;29616;51.950;8.572;2023-11-18T10:45:38;237.90;;;119.20;;
7440;SDS011;29616;51.950;8.572;2023-11-18T10:48:25;243.02;;;119.13;;
7440;SDS011;29616;51.950;8.572;2023-11-18T10:51:00;242.05;;;119.03;;
7440;SDS011;29616;51.950;8.572;2023-11-18T10:53:29;245.20;;;120.70;;
7440;SDS011;29616;51.950;8.572;2023-11-18T10:56:06;242.07;;;117.47;;
7440;SDS011;29616;51.950;8.572;2023-11-18T10:58:55;247.70;;;116.65;;
7440;SDS011;29616;51.950;8.572;2023-11-18T11:01:27;254.75;;;121.57;;
7440;SDS011;29616;51.950;8.572;2023-11-18T11:04:00;241.27;;;119.18;;
7440;SDS011;29616;51.950;8.572;2023-11-18T11:06:34;241.65;;;119.93;;
7440;SDS011;29616;51.950;8.572;2023-11-18T11:11:52;240.98;;;116.38;;
7440;SDS011;29616;51.950;8.572;2023-11-18T11:14:29;244.55;;;119.05;;
7440;SDS011;29616;51.950;8.572;2023-11-18T11:17:08;236.35;;;116.60;;
7440;SDS011;29616;51.950;8.572;2023-11-18T11:19:57;237.80;;;114.55;;
7440;SDS011;29616;51.950;8.572;2023-11-18T11:22:50;236.27;;;116.50;;
7440;SDS011;29616;51.950;8.572;2023-11-18T11:25:50;241.30;;;114.40;;
7440;SDS011;29616;51.950;8.572;2023-11-18T11:28:37;239.70;;;113.78;;
7440;SDS011;29616;51.950;8.572;2023-11-18T11:31:27;246.23;;;119.80;;
7440;SDS011;29616;51.950;8.572;2023-11-18T11:34:09;245.88;;;115.72;;
7440;SDS011;29616;51.950;8.572;2023-11-18T11:36:49;240.30;;;117.68;;
7440;SDS011;29616;51.950;8.572;2023-11-18T11:39:23;244.73;;;120.85;;
7440;SDS011;29616;51.950;8.572;2023-11-18T11:41:56;244.38;;;120.22;;
7440;SDS011;29616;51.950;8.572;2023-11-18T11:44:36;239.77;;;118.18;;
7440;SDS011;29616;51.950;8.572;2023-11-18T11:47:22;241.70;;;115.20;;
7440;SDS011;29616;51.950;8.572;2023-11-18T11:50:27;239.98;;;120.45;;
7440;SDS011;29616;51.950;8.572;2023-11-18T11:53:08;234.82;;;115.75;;
7440;SDS011;29616;51.950;8.572;2023-11-18T11:55:46;234.40;;;116.85;;
7440;SDS011;29616;51.950;8.572;2023-11-18T11:58:37;238.88;;;115.75;;
7440;SDS011;29616;51.950;8.572;2023-11-18T12:01:25;235.45;;;114.20;;
7440;SDS011;29616;51.950;8.572;2023-11-18T12:04:07;239.43;;;114.07;;
7440;SDS011;29616;51.950;8.572;2023-11-18T12:06:48;240.13;;;116.80;;
7440;SDS011;29616;51.950;8.572;2023-11-18T12:09:39;239.68;;;119.20;;
7440;SDS011;29616;51.950;8.572;2023-11-18T12:12:33;240.32;;;115.60;;
7440;SDS011;29616;51.950;8.572;2023-11-18T12:15:21;243.65;;;121.18;;
7440;SDS011;29616;51.950;8.572;2023-11-18T12:18:30;245.20;;;123.05;;
7440;SDS011;29616;51.950;8.572;2023-11-18T12:21:04;250.43;;;119.82;;
7440;SDS011;29616;51.950;8.572;2023-11-18T12:27:04;247.02;;;120.07;;
7440;SDS011;29616;51.950;8.572;2023-11-18T12:29:49;246.30;;;121.90;;
7440;SDS011;29616;51.950;8.572;2023-11-18T12:43:46;255.00;;;128.48;;
7440;SDS011;29616;51.950;8.572;2023-11-18T12:46:52;251.90;;;121.85;;
7440;SDS011;29616;51.950;8.572;2023-11-18T12:49:24;253.93;;;123.00;;
7440;SDS011;29616;51.950;8.572;2023-11-18T12:51:55;252.07;;;124.78;;
7440;SDS011;29616;51.950;8.572;2023-11-18T12:54:30;249.82;;;124.28;;
7440;SDS011;29616;51.950;8.572;2023-11-18T12:57:06;253.75;;;122.63;;
7440;SDS011;29616;51.950;8.572;2023-11-18T12:59:43;251.68;;;122.25;;
7440;SDS011;29616;51.950;8.572;2023-11-18T13:02:31;266.27;;;126.65;;
7440;SDS011;29616;51.950;8.572;2023-11-18T13:05:10;271.23;;;131.27;;
7440;SDS011;29616;51.950;8.572;2023-11-18T13:07:49;254.80;;;126.75;;
7440;SDS011;29616;51.950;8.572;2023-11-18T13:10:18;244.60;;;122.38;;
7440;SDS011;29616;51.950;8.572;2023-11-18T13:12:52;249.93;;;125.82;;
7440;SDS011;29616;51.950;8.572;2023-11-18T13:18:06;250.05;;;125.55;;
7440;SDS011;29616;51.950;8.572;2023-11-18T13:20:37;242.73;;;119.05;;
7440;SDS011;29616;51.950;8.572;2023-11-18T13:23:10;242.88;;;122.93;;
7440;SDS011;29616;51.950;8.572;2023-11-18T13:25:46;247.73;;;125.22;;
7440;SDS011;29616;51.950;8.572;2023-11-18T13:28:21;246.45;;;120.15;;
7440;SDS011;29616;51.950;8.572;2023-11-18T13:31:07;244.18;;;124.72;;
7440;SDS011;29616;51.950;8.572;2023-11-18T13:33:38;242.20;;;123.60;;
7440;SDS011;29616;51.950;8.572;2023-11-18T13:36:11;246.52;;;124.22;;
7440;SDS011;29616;51.950;8.572;2023-11-18T13:38:57;240.65;;;119.75;;
7440;SDS011;29616;51.950;8.572;2023-11-18T13:41:56;234.23;;;116.30;;
7440;SDS011;29616;51.950;8.572;2023-11-18T13:44:35;233.13;;;122.22;;
7440;SDS011;29616;51.950;8.572;2023-11-18T13:47:25;236.93;;;120.15;;
7440;SDS011;29616;51.950;8.572;2023-11-18T13:50:01;246.27;;;122.13;;
7440;SDS011;29616;51.950;8.572;2023-11-18T13:52:50;240.00;;;119.40;;
7440;SDS011;29616;51.950;8.572;2023-11-18T13:55:41;258.02;;;124.78;;
7440;SDS011;29616;51.950;8.572;2023-11-18T13:58:32;253.95;;;128.32;;
7440;SDS011;29616;51.950;8.572;2023-11-18T14:01:29;238.90;;;118.97;;
7440;SDS011;29616;51.950;8.572;2023-11-18T14:04:00;236.20;;;117.60;;
7440;SDS011;29616;51.950;8.572;2023-11-18T14:06:50;239.13;;;118.03;;
7440;SDS011;29616;51.950;8.572;2023-11-18T14:09:50;241.25;;;123.47;;
7440;SDS011;29616;51.950;8.572;2023-11-18T14:12:39;238.60;;;123.70;;
7440;SDS011;29616;51.950;8.572;2023-11-18T14:15:41;234.48;;;119.07;;
7440;SDS011;29616;51.950;8.572;2023-11-18T14:18:14;234.93;;;121.47;;
7440;SDS011;29616;51.950;8.572;2023-11-18T14:20:45;236.07;;;121.68;;
7440;SDS011;29616;51.950;8.572;2023-11-18T14:23:19;232.32;;;116.93;;
7440;SDS011;29616;51.950;8.572;2023-11-18T14:25:49;234.00;;;120.70;;
7440;SDS011;29616;51.950;8.572;2023-11-18T14:28:22;238.60;;;124.32;;
7440;SDS011;29616;51.950;8.572;2023-11-18T14:30:56;245.25;;;120.22;;
7440;SDS011;29616;51.950;8.572;2023-11-18T14:37:32;249.73;;;129.07;;
7440;SDS011;29616;51.950;8.572;2023-11-18T14:40:02;244.43;;;123.13;;
7440;SDS011;29616;51.950;8.572;2023-11-18T14:45:07;240.48;;;123.15;;
7440;SDS011;29616;51.950;8.572;2023-11-18T14:47:38;242.25;;;122.68;;
7440;SDS011;29616;51.950;8.572;2023-11-18T14:50:09;247.57;;;123.43;;
7440;SDS011;29616;51.950;8.572;2023-11-18T14:52:46;246.23;;;122.50;;
7440;SDS011;29616;51.950;8.572;2023-11-18T14:55:19;239.07;;;124.35;;
7440;SDS011;29616;51.950;8.572;2023-11-18T14:57:48;246.90;;;127.28;;
7440;SDS011;29616;51.950;8.572;2023-11-18T15:00:18;250.60;;;129.07;;
7440;SDS011;29616;51.950;8.572;2023-11-18T15:02:49;240.40;;;125.68;;
7440;SDS011;29616;51.950;8.572;2023-11-18T15:05:25;244.30;;;122.55;;
7440;SDS011;29616;51.950;8.572;2023-11-18T15:07:58;250.55;;;128.68;;
7440;SDS011;29616;51.950;8.572;2023-11-18T15:10:28;272.33;;;137.13;;
7440;SDS011;29616;51.950;8.572;2023-11-18T15:12:58;280.85;;;139.30;;
7440;SDS011;29616;51.950;8.572;2023-11-18T15:15:30;283.90;;;140.77;;
7440;SDS011;29616;51.950;8.572;2023-11-18T15:18:03;270.85;;;136.75;;
7440;SDS011;29616;51.950;8.572;2023-11-18T15:20:35;275.23;;;138.35;;
7440;SDS011;29616;51.950;8.572;2023-11-18T15:23:06;284.02;;;136.18;;
7440;SDS011;29616;51.950;8.572;2023-11-18T15:25:36;278.40;;;135.13;;